KNQX/NQX METAR and TAF weather

Enter ICAO airport designator
Station Type Date Time Source
KNQX METAR 2020/01/26 18:53 UTC NOAA

KNQX 261853Z 36010KT 10SM FEW014 20/09 A3005 RMK AO2 SLP173 T02000094 $


Station Type Date Time Source
KNQX Decoded METAR 2020/01/26 18:53 UTC NOAA

KEY WEST NAVAL AIR STATION, FL, United States (KNQX) 24-35N 81-41W 6M
Jan 26, 2020 - 01:53 PM EST / 2020.01.26 1853 UTC
Wind: from the N (360 degrees) at 12 MPH (10 KT):0
Visibility: 10 mile(s):0
Sky conditions: mostly clear
Temperature: 68.0 F (20.0 C)
Dew Point: 48.9 F (9.4 C)
Relative Humidity: 50%
Pressure (altimeter): 30.05 in. Hg (1017 hPa)
ob: KNQX 261853Z 36010KT 10SM FEW014 20/09 A3005 RMK AO2 SLP173 T02000094
cycle: 19

Station Type Date Time Source
KNQX TAF 2020/01/26 15:13 UTC NOAA

TAF KNQX 2615/2715 02011KT 9999 FEW015 QNH3000INS
FM262300 VRB05KT 9999 FEW015 QNH2995INS T22/2619Z T16/2711Z FN20056

Example: see airport list